createdAt,value
2022-09-25T00:01:19.650Z,0.50
2022-09-25T00:03:47.643Z,0.50
2022-09-25T00:06:23.047Z,0.30
2022-09-25T00:08:50.989Z,0.70
2022-09-25T00:11:28.189Z,0.47
2022-09-25T00:16:26.367Z,0.60
2022-09-25T00:19:12.697Z,0.70
2022-09-25T00:21:40.421Z,0.73
2022-09-25T00:24:10.366Z,0.90
2022-09-25T00:26:41.659Z,1.02
2022-09-25T00:29:13.805Z,0.75
2022-09-25T00:31:41.489Z,0.70
2022-09-25T00:34:10.330Z,0.80
2022-09-25T00:36:37.935Z,0.60
2022-09-25T00:39:06.335Z,0.75
2022-09-25T00:41:34.869Z,0.60
2022-09-25T00:44:04.414Z,0.57
2022-09-25T00:46:35.194Z,0.70
2022-09-25T00:49:17.543Z,0.45
2022-09-25T00:51:57.072Z,0.50
2022-09-25T00:54:33.519Z,0.77
2022-09-25T00:57:04.962Z,0.47
2022-09-25T00:59:37.923Z,0.40
2022-09-25T01:02:07.606Z,0.60
2022-09-25T01:04:38.220Z,0.50
2022-09-25T01:07:08.900Z,0.60
2022-09-25T01:09:36.862Z,0.60
2022-09-25T01:12:05.067Z,0.55
2022-09-25T01:14:34.868Z,0.40
2022-09-25T01:17:24.870Z,0.50
2022-09-25T01:20:23.284Z,0.40
2022-09-25T01:23:02.510Z,0.40
2022-09-25T01:26:06.997Z,0.22
2022-09-25T01:29:12.542Z,0.32
2022-09-25T01:32:03.399Z,0.35
2022-09-25T01:34:43.914Z,0.32
2022-09-25T01:37:28.034Z,0.30
2022-09-25T01:40:08.241Z,0.30
2022-09-25T01:42:44.895Z,0.60
2022-09-25T01:45:43.522Z,0.70
2022-09-25T01:48:15.055Z,0.88
2022-09-25T01:50:51.394Z,0.47
2022-09-25T01:53:28.474Z,0.57
2022-09-25T01:56:01.941Z,0.40
2022-09-25T01:58:34.728Z,0.60
2022-09-25T02:01:08.800Z,0.35
2022-09-25T02:03:44.086Z,0.57
2022-09-25T02:06:17.097Z,0.63
2022-09-25T02:08:55.746Z,0.73
2022-09-25T02:11:28.630Z,0.93
2022-09-25T02:14:20.450Z,0.77
2022-09-25T02:16:55.553Z,0.50
2022-09-25T02:19:41.639Z,0.25
2022-09-25T02:22:20.166Z,0.30
2022-09-25T02:24:58.629Z,0.38
2022-09-25T02:27:29.521Z,0.50
2022-09-25T02:29:58.492Z,0.73
2022-09-25T02:32:30.488Z,0.60
2022-09-25T02:34:59.998Z,0.82
2022-09-25T02:37:28.286Z,2.55
2022-09-25T02:40:02.309Z,3.03
2022-09-25T02:42:55.373Z,2.72
2022-09-25T02:45:37.743Z,2.88
2022-09-25T02:48:10.995Z,1.77
2022-09-25T02:50:41.205Z,1.83
2022-09-25T02:53:14.366Z,1.70
2022-09-25T02:55:52.225Z,1.15
2022-09-25T02:58:24.791Z,0.98
2022-09-25T03:00:56.042Z,1.17
2022-09-25T03:03:26.406Z,0.93
2022-09-25T03:05:57.424Z,0.47
2022-09-25T03:08:41.679Z,0.38
2022-09-25T03:11:14.496Z,0.50
2022-09-25T03:13:43.048Z,0.38
2022-09-25T03:16:19.691Z,0.50
2022-09-25T03:18:47.917Z,0.50
2022-09-25T03:21:15.887Z,0.38
2022-09-25T03:23:43.475Z,0.77
2022-09-25T03:26:11.619Z,0.40
2022-09-25T03:28:39.306Z,0.30
2022-09-25T03:31:10.889Z,0.30
2022-09-25T03:33:41.526Z,0.32
2022-09-25T03:36:11.152Z,0.30
2022-09-25T03:38:41.323Z,0.60
2022-09-25T03:41:10.405Z,0.75
2022-09-25T03:43:39.698Z,0.93
2022-09-25T03:46:10.392Z,1.30
2022-09-25T03:48:38.953Z,1.88
2022-09-25T03:51:07.044Z,2.13
2022-09-25T03:53:35.783Z,1.67
2022-09-25T03:56:08.988Z,2.00
2022-09-25T03:58:36.508Z,1.58
2022-09-25T04:01:04.381Z,1.50
2022-09-25T04:03:33.876Z,1.30
2022-09-25T04:06:04.938Z,1.45
2022-09-25T04:08:34.507Z,0.90
2022-09-25T04:11:02.601Z,0.75
2022-09-25T04:13:35.369Z,0.85
2022-09-25T04:16:05.022Z,0.80
2022-09-25T04:18:32.934Z,1.00
2022-09-25T04:21:08.563Z,0.60
2022-09-25T04:23:37.652Z,0.45
2022-09-25T04:26:06.182Z,0.40
2022-09-25T04:28:34.245Z,0.40
2022-09-25T04:31:02.715Z,0.28
2022-09-25T04:34:02.592Z,0.40
2022-09-25T04:36:30.034Z,0.40
2022-09-25T04:38:57.435Z,0.40
2022-09-25T04:41:25.046Z,0.43
2022-09-25T04:43:52.446Z,0.35
2022-09-25T04:46:22.398Z,0.47
2022-09-25T04:48:50.401Z,0.40
2022-09-25T04:51:18.148Z,0.30
2022-09-25T04:53:46.192Z,0.40
2022-09-25T04:56:16.092Z,0.50
2022-09-25T04:58:49.750Z,0.38
2022-09-25T05:01:20.462Z,0.50
2022-09-25T05:03:54.226Z,0.30
2022-09-25T05:06:22.834Z,0.57
2022-09-25T05:08:50.648Z,0.30
2022-09-25T05:11:18.541Z,0.25
2022-09-25T05:13:50.354Z,0.25
2022-09-25T05:16:18.205Z,0.30
2022-09-25T05:18:45.944Z,0.57
2022-09-25T05:21:13.349Z,0.50
2022-09-25T05:23:40.765Z,0.20
2022-09-25T05:26:09.626Z,0.55
2022-09-25T05:28:37.112Z,0.40
2022-09-25T05:31:05.786Z,0.47
2022-09-25T05:33:35.327Z,0.30
2022-09-25T05:36:04.762Z,0.40
2022-09-25T05:38:33.370Z,0.50
2022-09-25T05:41:05.080Z,0.32
2022-09-25T05:43:33.584Z,0.85
2022-09-25T05:46:01.433Z,1.40
2022-09-25T05:48:28.903Z,0.63
2022-09-25T05:50:57.467Z,0.63
2022-09-25T05:53:25.769Z,0.45
2022-09-25T05:55:54.960Z,0.80
2022-09-25T05:58:22.752Z,0.50
2022-09-25T06:00:51.151Z,0.95
2022-09-25T06:03:19.729Z,0.55
2022-09-25T06:05:47.872Z,0.63
2022-09-25T06:08:15.691Z,0.70
2022-09-25T06:10:43.243Z,0.80
2022-09-25T06:13:10.664Z,0.82
2022-09-25T06:15:41.802Z,0.80
2022-09-25T06:18:09.656Z,0.70
2022-09-25T06:20:37.060Z,1.02
2022-09-25T06:23:04.576Z,0.85
2022-09-25T06:25:32.752Z,0.98
2022-09-25T06:28:01.290Z,0.85
2022-09-25T06:30:37.155Z,1.10
2022-09-25T06:33:09.638Z,1.20
2022-09-25T06:35:41.662Z,1.25
2022-09-25T06:38:09.522Z,1.20
2022-09-25T06:40:41.445Z,0.88
2022-09-25T06:43:14.540Z,1.13
2022-09-25T06:45:43.133Z,1.00
2022-09-25T06:48:13.749Z,1.08
2022-09-25T06:50:44.261Z,1.38
2022-09-25T06:53:12.954Z,1.50
2022-09-25T06:55:40.976Z,1.73
2022-09-25T06:58:11.374Z,1.00
2022-09-25T07:00:38.978Z,1.08
2022-09-25T07:03:24.882Z,1.25
2022-09-25T07:06:04.549Z,1.50
2022-09-25T07:08:32.214Z,1.23
2022-09-25T07:11:00.765Z,1.17
2022-09-25T07:13:31.653Z,1.17
2022-09-25T07:16:07.605Z,1.17
2022-09-25T07:18:35.226Z,1.13
2022-09-25T07:21:08.449Z,1.23
2022-09-25T07:23:36.679Z,1.30
2022-09-25T07:26:10.029Z,1.40
2022-09-25T07:28:39.338Z,1.50
2022-09-25T07:31:16.960Z,1.33
2022-09-25T07:33:44.916Z,1.17
2022-09-25T07:36:13.186Z,0.73
2022-09-25T07:38:41.495Z,1.15
2022-09-25T07:41:13.155Z,0.90
2022-09-25T07:43:43.609Z,1.40
2022-09-25T07:46:11.935Z,0.80
2022-09-25T07:48:39.580Z,1.00
2022-09-25T07:51:10.483Z,1.00
2022-09-25T07:53:39.210Z,1.10
2022-09-25T07:56:07.382Z,1.10
2022-09-25T07:58:42.873Z,1.35
2022-09-25T08:01:12.752Z,1.35
2022-09-25T08:03:40.416Z,0.95
2022-09-25T08:06:13.492Z,0.90
2022-09-25T08:08:43.011Z,1.00
2022-09-25T08:11:13.640Z,0.80
2022-09-25T08:13:42.706Z,0.80
2022-09-25T08:16:14.625Z,1.17
2022-09-25T08:18:46.243Z,1.02
2022-09-25T08:21:16.026Z,0.90
2022-09-25T08:23:47.969Z,0.60
2022-09-25T08:26:17.058Z,0.88
2022-09-25T08:28:45.014Z,0.77
2022-09-25T08:31:14.643Z,1.20
2022-09-25T08:33:50.400Z,1.00
2022-09-25T08:36:18.667Z,1.05
2022-09-25T08:38:46.870Z,1.10
2022-09-25T08:41:25.303Z,1.50
2022-09-25T08:43:57.604Z,1.80
2022-09-25T08:46:51.646Z,1.83
2022-09-25T08:49:25.094Z,2.00
2022-09-25T08:51:56.771Z,2.53
2022-09-25T08:54:29.572Z,3.17
2022-09-25T08:57:21.126Z,3.20
2022-09-25T08:59:59.745Z,2.72
2022-09-25T09:02:55.208Z,2.50
2022-09-25T09:05:30.525Z,2.10
2022-09-25T09:08:02.590Z,2.20
2022-09-25T09:10:45.681Z,2.28
2022-09-25T09:13:51.680Z,2.58
2022-09-25T09:16:27.326Z,4.20
2022-09-25T09:18:56.020Z,2.50
2022-09-25T09:21:45.699Z,2.92
2022-09-25T09:24:13.128Z,2.38
2022-09-25T09:27:04.398Z,2.58
2022-09-25T09:29:59.309Z,2.65
2022-09-25T09:32:58.590Z,2.45
2022-09-25T09:35:34.036Z,2.92
2022-09-25T09:38:23.334Z,2.80
2022-09-25T09:41:13.134Z,2.65
2022-09-25T09:44:16.255Z,2.65
2022-09-25T09:47:14.070Z,2.63
2022-09-25T09:49:47.530Z,2.90
2022-09-25T09:52:21.283Z,2.80
2022-09-25T09:55:13.992Z,7.85
2022-09-25T09:57:48.774Z,3.08
2022-09-25T10:00:19.156Z,3.15
2022-09-25T10:03:09.923Z,2.92
2022-09-25T10:05:43.119Z,3.55
2022-09-25T10:08:11.189Z,2.65
2022-09-25T10:10:41.827Z,2.83
2022-09-25T10:13:20.242Z,2.72
2022-09-25T10:16:00.460Z,2.97
2022-09-25T10:19:10.988Z,2.85
2022-09-25T10:21:43.254Z,2.53
2022-09-25T10:24:10.802Z,2.72
2022-09-25T10:26:39.809Z,2.20
2022-09-25T10:29:10.277Z,2.50
2022-09-25T10:31:40.428Z,2.33
2022-09-25T10:34:13.850Z,2.22
2022-09-25T10:36:44.899Z,2.20
2022-09-25T10:39:45.077Z,2.10
2022-09-25T10:42:37.942Z,1.88
2022-09-25T10:45:26.363Z,1.95
2022-09-25T10:48:12.551Z,1.88
2022-09-25T10:50:40.106Z,3.22
2022-09-25T10:53:28.394Z,2.53
2022-09-25T10:56:05.209Z,2.70
2022-09-25T10:58:43.417Z,3.08
2022-09-25T11:01:13.653Z,2.45
2022-09-25T11:03:55.280Z,4.15
2022-09-25T11:06:26.203Z,2.80
2022-09-25T11:09:09.106Z,2.95
2022-09-25T11:11:38.696Z,3.22
2022-09-25T11:14:19.357Z,3.75
2022-09-25T11:16:52.744Z,3.13
2022-09-25T11:19:26.384Z,3.00
2022-09-25T11:22:25.825Z,2.80
2022-09-25T11:25:04.960Z,3.25
2022-09-25T11:27:34.972Z,2.90
2022-09-25T11:30:04.733Z,2.85
2022-09-25T11:33:09.082Z,3.38
2022-09-25T11:36:03.821Z,3.75
2022-09-25T11:39:13.575Z,3.13
2022-09-25T11:42:14.364Z,3.88
2022-09-25T11:45:02.737Z,3.28
2022-09-25T11:47:40.867Z,5.75
2022-09-25T11:50:17.968Z,4.00
2022-09-25T11:53:33.200Z,3.42
2022-09-25T11:56:15.483Z,3.53
2022-09-25T11:59:01.023Z,3.85
2022-09-25T12:01:46.202Z,3.75
2022-09-25T12:04:16.394Z,4.60
2022-09-25T12:06:55.258Z,4.00
2022-09-25T12:09:47.728Z,4.68
2022-09-25T12:12:36.778Z,3.58
2022-09-25T12:15:34.236Z,3.28
2022-09-25T12:18:12.402Z,3.20
2022-09-25T12:21:01.675Z,2.70
2022-09-25T12:23:36.546Z,2.80
2022-09-25T12:26:17.531Z,3.58
2022-09-25T12:29:19.759Z,3.65
2022-09-25T12:32:05.744Z,4.28
2022-09-25T12:34:50.887Z,3.50
2022-09-25T12:37:43.105Z,3.33
2022-09-25T12:40:24.138Z,3.38
2022-09-25T12:43:03.094Z,2.80
2022-09-25T12:45:37.760Z,3.53
2022-09-25T12:48:24.282Z,4.07
2022-09-25T12:50:55.940Z,4.40
2022-09-25T12:53:27.086Z,4.90
2022-09-25T12:56:18.942Z,6.00
2022-09-25T12:59:22.393Z,6.03
2022-09-25T13:02:11.304Z,5.78
2022-09-25T13:05:00.371Z,4.80
2022-09-25T13:07:38.555Z,5.00
2022-09-25T13:10:17.764Z,5.75
2022-09-25T13:12:47.099Z,6.72
2022-09-25T13:15:23.376Z,6.00
2022-09-25T13:17:51.311Z,5.43
2022-09-25T13:20:29.930Z,5.22
2022-09-25T13:23:05.523Z,7.35
2022-09-25T13:26:01.356Z,5.55
2022-09-25T13:28:36.057Z,5.97
2022-09-25T13:31:30.300Z,5.60
2022-09-25T13:34:00.519Z,3.60
2022-09-25T13:36:32.276Z,3.55
2022-09-25T13:39:35.522Z,3.88
2022-09-25T13:42:14.268Z,4.65
2022-09-25T13:44:45.062Z,4.45
2022-09-25T13:47:23.149Z,3.58
2022-09-25T13:49:51.697Z,3.45
2022-09-25T13:52:30.404Z,3.30
2022-09-25T13:55:23.931Z,3.83
2022-09-25T13:58:00.267Z,3.17
2022-09-25T14:00:36.588Z,3.15
2022-09-25T14:03:08.047Z,3.67
2022-09-25T14:05:37.216Z,3.72
2022-09-25T14:08:12.279Z,3.55
2022-09-25T14:10:49.250Z,3.13
2022-09-25T14:13:21.960Z,3.10
2022-09-25T14:15:51.033Z,4.07
2022-09-25T14:18:36.368Z,3.55
2022-09-25T14:21:07.741Z,2.83
2022-09-25T14:23:51.139Z,2.78
2022-09-25T14:26:22.244Z,2.60
2022-09-25T14:28:51.643Z,3.30
2022-09-25T14:31:24.821Z,2.67
2022-09-25T14:34:12.412Z,2.45
2022-09-25T14:37:00.667Z,2.30
2022-09-25T14:39:37.457Z,2.40
2022-09-25T14:42:23.501Z,2.97
2022-09-25T14:45:13.992Z,2.38
2022-09-25T14:47:45.238Z,3.58
2022-09-25T14:50:38.525Z,3.47
2022-09-25T14:53:11.309Z,3.15
2022-09-25T14:55:46.410Z,4.07
2022-09-25T14:58:19.698Z,3.20
2022-09-25T15:01:00.208Z,3.75
2022-09-25T15:03:31.548Z,3.13
2022-09-25T15:06:04.218Z,3.08
2022-09-25T15:08:41.732Z,3.03
2022-09-25T15:11:16.106Z,3.90
2022-09-25T15:13:44.230Z,3.80
2022-09-25T15:16:38.885Z,4.10
2022-09-25T15:19:20.685Z,3.80
2022-09-25T15:21:51.754Z,3.28
2022-09-25T15:24:24.247Z,3.70
2022-09-25T15:27:02.946Z,3.83
2022-09-25T15:29:38.243Z,3.53
2022-09-25T15:32:06.539Z,3.13
2022-09-25T15:34:34.914Z,2.92
2022-09-25T15:37:29.991Z,2.50
2022-09-25T15:40:09.966Z,2.78
2022-09-25T15:42:46.922Z,3.75
2022-09-25T15:45:36.651Z,2.90
2022-09-25T15:48:12.917Z,3.10
2022-09-25T15:50:44.745Z,2.97
2022-09-25T15:53:29.287Z,3.33
2022-09-25T15:56:21.360Z,3.33
2022-09-25T15:58:56.850Z,3.85
2022-09-25T16:01:48.661Z,3.63
2022-09-25T16:04:39.312Z,3.30
2022-09-25T16:07:36.247Z,3.40
2022-09-25T16:10:09.605Z,3.63
2022-09-25T16:12:47.726Z,3.60
2022-09-25T16:15:27.311Z,3.58
2022-09-25T16:18:02.888Z,3.17
2022-09-25T16:20:37.455Z,3.83
2022-09-25T16:23:16.764Z,3.70
2022-09-25T16:25:44.958Z,4.05
2022-09-25T16:28:28.156Z,3.95
2022-09-25T16:31:08.039Z,3.65
2022-09-25T16:33:40.077Z,3.85
2022-09-25T16:36:17.661Z,3.72
2022-09-25T16:39:25.469Z,3.78
2022-09-25T16:41:53.307Z,3.90
2022-09-25T16:44:48.496Z,3.33
2022-09-25T16:47:20.237Z,3.67
2022-09-25T16:49:51.554Z,3.80
2022-09-25T16:52:23.224Z,4.05
2022-09-25T16:54:54.116Z,3.83
2022-09-25T16:57:23.519Z,6.30
2022-09-25T16:59:51.957Z,4.55
2022-09-25T17:02:25.512Z,6.82
2022-09-25T17:04:53.147Z,4.72
2022-09-25T17:07:22.786Z,5.15
2022-09-25T17:09:50.337Z,4.45
2022-09-25T17:12:26.882Z,4.25
2022-09-25T17:14:55.142Z,4.50
2022-09-25T17:17:23.097Z,4.15
2022-09-25T17:19:50.790Z,4.47
2022-09-25T17:22:22.713Z,4.13
2022-09-25T17:24:50.979Z,4.15
2022-09-25T17:27:20.525Z,3.92
2022-09-25T17:29:48.292Z,4.18
2022-09-25T17:32:19.345Z,4.10
2022-09-25T17:34:47.001Z,4.05
2022-09-25T17:37:14.685Z,4.00
2022-09-25T17:39:42.124Z,3.83
2022-09-25T17:42:10.766Z,3.70
2022-09-25T17:44:42.971Z,3.88
2022-09-25T17:47:10.791Z,3.60
2022-09-25T17:49:38.221Z,3.75
2022-09-25T17:52:05.746Z,3.70
2022-09-25T17:54:33.273Z,4.00
2022-09-25T17:57:00.680Z,3.53
2022-09-25T17:59:28.146Z,3.67
2022-09-25T18:01:57.371Z,4.18
2022-09-25T18:04:25.865Z,4.20
2022-09-25T18:06:53.630Z,3.50
2022-09-25T18:09:21.416Z,3.78
2022-09-25T18:11:48.927Z,3.45
2022-09-25T18:14:16.913Z,3.33
2022-09-25T18:16:45.020Z,3.63
2022-09-25T18:19:36.280Z,3.50
2022-09-25T18:22:21.958Z,4.47
2022-09-25T18:27:26.852Z,4.70
2022-09-25T18:29:54.290Z,4.63
2022-09-25T18:32:24.731Z,3.97
2022-09-25T18:34:52.329Z,5.57
2022-09-25T18:37:20.631Z,6.35
2022-09-25T18:39:48.228Z,7.75
2022-09-25T18:42:15.882Z,6.63
2022-09-25T18:44:43.462Z,6.53
2022-09-25T18:47:11.966Z,6.10
2022-09-25T18:49:39.396Z,5.40
2022-09-25T18:52:06.944Z,4.95
2022-09-25T18:54:34.953Z,5.32
2022-09-25T18:57:02.550Z,4.65
2022-09-25T18:59:30.560Z,5.07
2022-09-25T19:01:58.351Z,4.30
2022-09-25T19:04:26.574Z,3.88
2022-09-25T19:06:54.108Z,3.95
2022-09-25T19:09:27.361Z,3.95
2022-09-25T19:11:55.986Z,4.47
2022-09-25T19:14:24.200Z,4.45
2022-09-25T19:16:54.474Z,4.57
2022-09-25T19:19:22.238Z,3.97
2022-09-25T19:21:49.699Z,4.25
2022-09-25T19:24:18.453Z,4.10
2022-09-25T19:26:45.994Z,5.25
2022-09-25T19:29:13.780Z,4.80
2022-09-25T19:31:41.882Z,4.50
2022-09-25T19:34:09.980Z,4.85
2022-09-25T19:36:38.627Z,4.53
2022-09-25T19:39:06.194Z,4.97
2022-09-25T19:41:35.835Z,4.72
2022-09-25T19:44:12.961Z,4.65
2022-09-25T19:46:42.642Z,4.63
2022-09-25T19:49:11.603Z,4.47
2022-09-25T19:51:39.615Z,4.10
2022-09-25T19:54:08.818Z,4.50
2022-09-25T19:56:40.912Z,5.03
2022-09-25T19:59:12.921Z,4.25
2022-09-25T20:01:42.879Z,4.28
2022-09-25T20:04:18.107Z,4.72
2022-09-25T20:06:47.073Z,4.97
2022-09-25T20:09:14.830Z,4.97
2022-09-25T20:11:42.801Z,4.10
2022-09-25T20:14:10.386Z,4.65
2022-09-25T20:16:37.892Z,4.55
2022-09-25T20:19:06.900Z,4.15
2022-09-25T20:21:38.728Z,3.70
2022-09-25T20:24:08.745Z,4.63
2022-09-25T20:26:36.661Z,4.03
2022-09-25T20:29:12.366Z,4.50
2022-09-25T20:31:43.162Z,4.22
2022-09-25T20:34:16.438Z,4.30
2022-09-25T20:36:46.683Z,3.63
2022-09-25T20:39:21.116Z,4.22
2022-09-25T20:41:50.374Z,3.97
2022-09-25T20:44:17.823Z,4.03
2022-09-25T20:46:45.320Z,4.22
2022-09-25T20:49:13.275Z,4.13
2022-09-25T20:51:41.310Z,4.03
2022-09-25T20:54:10.197Z,3.92
2022-09-25T20:56:39.047Z,3.92
2022-09-25T20:59:06.441Z,3.80
2022-09-25T21:01:36.928Z,4.30
2022-09-25T21:04:08.174Z,3.95
2022-09-25T21:06:39.472Z,3.83
2022-09-25T21:09:17.440Z,3.95
2022-09-25T21:11:45.056Z,4.43
2022-09-25T21:14:19.662Z,4.15
2022-09-25T21:16:48.305Z,4.63
2022-09-25T21:19:17.374Z,4.68
2022-09-25T21:21:45.371Z,4.30
2022-09-25T21:24:17.620Z,4.57
2022-09-25T21:26:46.201Z,4.63
2022-09-25T21:29:16.029Z,4.88
2022-09-25T21:31:49.314Z,4.82
2022-09-25T21:34:17.572Z,4.35
2022-09-25T21:36:46.575Z,4.53
2022-09-25T21:39:14.490Z,4.15
2022-09-25T21:41:41.974Z,4.80
2022-09-25T21:44:19.230Z,5.13
2022-09-25T21:46:46.853Z,5.80
2022-09-25T21:49:19.370Z,4.97
2022-09-25T21:51:47.631Z,5.40
2022-09-25T21:54:16.260Z,5.30
2022-09-25T21:56:44.640Z,5.47
2022-09-25T21:59:12.994Z,5.80
2022-09-25T22:01:41.316Z,5.53
2022-09-25T22:04:12.154Z,4.95
2022-09-25T22:06:42.388Z,5.22
2022-09-25T22:09:13.569Z,6.95
2022-09-25T22:11:42.596Z,6.03
2022-09-25T22:14:14.918Z,5.80
2022-09-25T22:16:45.549Z,5.55
2022-09-25T22:19:17.498Z,5.28
2022-09-25T22:21:47.385Z,5.13
2022-09-25T22:24:15.578Z,5.68
2022-09-25T22:26:45.267Z,5.72
2022-09-25T22:29:13.183Z,4.78
2022-09-25T22:31:43.569Z,5.50
2022-09-25T22:34:18.925Z,5.38
2022-09-25T22:36:47.386Z,5.25
2022-09-25T22:39:17.114Z,5.22
2022-09-25T22:41:45.602Z,5.45
2022-09-25T22:44:13.085Z,5.80
2022-09-25T22:46:40.515Z,5.78
2022-09-25T22:49:07.913Z,4.93
2022-09-25T22:51:35.504Z,5.25
2022-09-25T22:54:02.991Z,5.22
2022-09-25T22:56:34.848Z,5.65
2022-09-25T22:59:08.177Z,5.30
2022-09-25T23:01:50.643Z,5.50
2022-09-25T23:04:20.882Z,4.97
2022-09-25T23:06:49.338Z,5.80
2022-09-25T23:09:27.439Z,5.70
2022-09-25T23:11:56.908Z,6.25
2022-09-25T23:14:28.410Z,5.97
2022-09-25T23:16:56.878Z,5.40
2022-09-25T23:19:25.300Z,5.47
2022-09-25T23:21:54.030Z,5.97
2022-09-25T23:24:22.712Z,5.90
2022-09-25T23:26:51.263Z,5.57
2022-09-25T23:29:20.365Z,6.45
2022-09-25T23:31:49.066Z,5.95
2022-09-25T23:34:17.380Z,6.50
2022-09-25T23:36:44.845Z,5.93
2022-09-25T23:39:17.821Z,6.13
2022-09-25T23:41:45.703Z,6.45
2022-09-25T23:44:13.379Z,6.60
2022-09-25T23:46:42.355Z,5.80
2022-09-25T23:49:10.912Z,6.50
2022-09-25T23:51:38.768Z,6.53
2022-09-25T23:54:10.129Z,6.35
2022-09-25T23:56:38.830Z,5.78
2022-09-25T23:59:06.410Z,5.57
